Elliot Lake, Canada
Current Conditions -  °F | °C
As of 9:00 AM on Wednesday 28 Jan 2015 (Local Time) from CYZE Reporting Station
Clear Clear  
Wind Chill: -18°   Ceiling: Unl
Heat Index: -18°   Visibility: 9mi
Dew Point: -20°   Wind: 3mph
Humidity: 85%   Direction: 90°E
Pressure: 30.3"   Gusts: NA
Location:  46.38°N, 82.65°W
Report Text: CYZE 281400Z AUTO 09003KT 9SM CLR M18/M20 A3030 RMK ICG SLP277
Loading
Personal Weather Stations






























Interactive Weather Map New forecast layout! Learn more

10-Day Weather Forecast

Advertisements
Track Severe Weather on mobile